Time;durP1;ratioP1;P1;durP2;ratioP2;P2;SDS_P1;SDS_P2;PMS_P1;PMS_P2;Temp;Humidity;BMP_temperature;BMP_pressure;BME280_temperature;BME280_humidity;BME280_pressure;Samples;Min_cycle;Max_cycle;Signal;HPM_P1;HPM_P2
2022/03/15 00:00:32;;;;;;;12.82;6.00;;;6.90;99.90;;;;;;5045258;28;20067;-66
2022/03/15 00:02:58;;;;;;;19.70;5.95;;;6.80;99.90;;;;;;5048855;28;20124;-66
2022/03/15 00:05:24;;;;;;;26.08;7.90;;;6.80;99.90;;;;;;5048615;28;20119;-66
2022/03/15 00:07:50;;;;;;;24.77;6.72;;;6.80;99.90;;;;;;5049255;28;20431;-66
2022/03/15 00:10:18;;;;;;;18.35;6.95;;;6.90;99.90;;;;;;5039628;28;20033;-66
2022/03/15 00:12:45;;;;;;;17.38;6.38;;;6.80;99.90;;;;;;5042428;28;20045;-66
2022/03/15 00:15:11;;;;;;;15.90;6.50;;;6.80;99.90;;;;;;5040007;28;20497;-66
2022/03/15 00:17:42;;;;;;;19.92;7.45;;;6.70;99.90;;;;;;5031526;28;20049;-66
2022/03/15 00:20:10;;;;;;;14.65;6.95;;;6.70;99.90;;;;;;5043805;28;20045;-66
2022/03/15 00:22:37;;;;;;;16.80;7.10;;;6.70;99.90;;;;;;5048244;28;20083;-66
2022/03/15 00:25:05;;;;;;;12.30;5.88;;;6.70;99.90;;;;;;5044622;28;20121;-66
2022/03/15 00:27:32;;;;;;;21.92;6.88;;;6.60;99.90;;;;;;5032203;28;20103;-66
2022/03/15 00:29:58;;;;;;;19.42;8.02;;;6.70;99.90;;;;;;5044636;28;20048;-66
2022/03/15 00:32:24;;;;;;;17.95;7.57;;;6.80;99.90;;;;;;5034742;28;20055;-66
2022/03/15 00:34:50;;;;;;;14.00;5.97;;;6.70;99.90;;;;;;5031051;28;20045;-66
2022/03/15 00:37:15;;;;;;;21.25;9.13;;;6.80;99.90;;;;;;5043334;28;20041;-66
2022/03/15 00:39:41;;;;;;;25.83;8.85;;;6.90;99.90;;;;;;5042606;28;20547;-66
2022/03/15 00:42:07;;;;;;;20.23;9.23;;;6.90;99.90;;;;;;5033791;28;20080;-66
2022/03/15 00:44:33;;;;;;;18.35;7.60;;;6.90;99.90;;;;;;5049106;28;20036;-66
2022/03/15 00:46:59;;;;;;;26.42;8.07;;;6.80;99.90;;;;;;5048960;28;20041;-66
2022/03/15 00:49:25;;;;;;;22.33;8.70;;;6.80;99.90;;;;;;5040022;28;20036;-66
2022/03/15 00:51:51;;;;;;;19.42;8.80;;;6.80;99.90;;;;;;5046120;28;20144;-66
2022/03/15 00:54:17;;;;;;;18.75;7.38;;;6.80;99.90;;;;;;5044456;28;20128;-66
2022/03/15 00:56:43;;;;;;;17.00;7.40;;;6.90;99.90;;;;;;5030072;28;20479;-66
2022/03/15 00:59:09;;;;;;;16.20;7.40;;;6.80;99.90;;;;;;5047761;28;20048;-66
2022/03/15 01:01:35;;;;;;;18.10;8.45;;;6.80;99.90;;;;;;5046923;28;20045;-66
2022/03/15 01:04:01;;;;;;;20.30;7.93;;;6.80;99.90;;;;;;5039176;28;20103;-66
2022/03/15 01:06:27;;;;;;;16.48;7.57;;;6.80;99.90;;;;;;5035956;28;20041;-66
2022/03/15 01:08:52;;;;;;;21.08;8.18;;;6.80;99.90;;;;;;5044732;28;20079;-66
2022/03/15 01:11:18;;;;;;;16.05;7.35;;;6.80;99.90;;;;;;5029598;28;20481;-66
2022/03/15 01:13:43;;;;;;;17.13;8.30;;;6.60;99.90;;;;;;5047275;28;20047;-66
2022/03/15 01:16:09;;;;;;;28.90;9.55;;;6.70;99.90;;;;;;5047523;28;20045;-66
2022/03/15 01:18:36;;;;;;;15.57;7.60;;;6.60;99.90;;;;;;5032336;28;20045;-66
2022/03/15 01:21:02;;;;;;;22.90;7.22;;;6.50;99.90;;;;;;5035834;28;20044;-66
2022/03/15 01:23:28;;;;;;;19.80;7.53;;;6.50;99.90;;;;;;5039225;28;20163;-66
2022/03/15 01:25:55;;;;;;;23.95;10.45;;;6.60;99.90;;;;;;5043750;28;20112;-66
2022/03/15 01:28:21;;;;;;;16.77;7.18;;;6.70;99.90;;;;;;5045947;28;20044;-66
2022/03/15 01:30:46;;;;;;;19.98;8.75;;;6.70;99.90;;;;;;5047837;28;20753;-66
2022/03/15 01:33:12;;;;;;;20.20;8.10;;;6.70;99.90;;;;;;5037458;28;20042;-66
2022/03/15 01:35:37;;;;;;;15.48;7.50;;;6.70;99.90;;;;;;5046703;28;20041;-66
2022/03/15 01:38:03;;;;;;;19.92;8.10;;;6.70;99.90;;;;;;5033361;28;20068;-66
2022/03/15 01:40:29;;;;;;;22.35;9.20;;;6.70;99.90;;;;;;5038355;28;20045;-66
2022/03/15 01:42:55;;;;;;;16.27;8.93;;;6.70;99.90;;;;;;5031648;28;20128;-66
2022/03/15 01:45:29;;;;;;;22.17;10.00;;;6.70;99.90;;;;;;5039485;28;20602;-66
2022/03/15 01:47:54;;;;;;;20.10;7.82;;;6.80;99.90;;;;;;5047716;28;20064;-66
2022/03/15 01:50:21;;;;;;;17.55;7.88;;;6.80;99.90;;;;;;5036524;28;20045;-66
2022/03/15 01:52:46;;;;;;;23.63;7.30;;;6.90;99.90;;;;;;5039597;28;20109;-66
2022/03/15 01:55:12;;;;;;;21.95;8.65;;;6.90;99.90;;;;;;5047140;28;20040;-66
2022/03/15 01:57:38;;;;;;;26.20;9.15;;;7.00;99.90;;;;;;5042517;28;20045;-67
2022/03/15 02:00:05;;;;;;;21.67;7.85;;;7.00;99.90;;;;;;5036281;28;20049;-66
2022/03/15 02:02:30;;;;;;;21.17;8.75;;;6.90;99.90;;;;;;5042161;28;20044;-67
2022/03/15 02:04:56;;;;;;;27.80;9.15;;;7.00;99.90;;;;;;5041209;28;20048;-67
2022/03/15 02:07:21;;;;;;;27.65;9.88;;;7.00;99.90;;;;;;5043438;28;20049;-67
2022/03/15 02:09:49;;;;;;;15.82;7.95;;;7.00;99.90;;;;;;5047799;28;20051;-67
2022/03/15 02:12:15;;;;;;;17.67;8.48;;;7.00;99.90;;;;;;5046418;28;20060;-67
2022/03/15 02:14:41;;;;;;;24.92;9.05;;;7.00;99.90;;;;;;5047231;28;20396;-67
2022/03/15 02:17:06;;;;;;;22.17;8.50;;;7.00;99.90;;;;;;5050741;28;20635;-67
2022/03/15 02:19:32;;;;;;;20.17;8.32;;;7.00;99.90;;;;;;5051312;28;20483;-67
2022/03/15 02:21:57;;;;;;;20.27;8.13;;;7.00;99.90;;;;;;5049588;28;20378;-67
2022/03/15 02:24:24;;;;;;;17.80;7.97;;;7.00;99.90;;;;;;5034269;28;20049;-67
2022/03/15 02:26:51;;;;;;;22.10;9.70;;;7.00;99.90;;;;;;5050091;28;20076;-66
2022/03/15 02:29:17;;;;;;;24.48;10.05;;;7.10;99.90;;;;;;5039072;28;20056;-67
2022/03/15 02:31:44;;;;;;;24.48;9.90;;;7.10;99.90;;;;;;5051010;28;20688;-67
2022/03/15 02:34:10;;;;;;;23.73;8.90;;;7.10;99.90;;;;;;5035083;28;20637;-67
2022/03/15 02:36:35;;;;;;;17.77;8.23;;;7.10;99.90;;;;;;5042070;28;20439;-67
2022/03/15 02:39:01;;;;;;;20.75;8.48;;;7.20;99.90;;;;;;5043916;28;20037;-67
2022/03/15 02:41:27;;;;;;;25.23;9.15;;;7.10;99.90;;;;;;5045530;28;20041;-67
2022/03/15 02:43:53;;;;;;;22.45;8.15;;;7.20;99.90;;;;;;5043801;28;20098;-67
2022/03/15 02:46:18;;;;;;;23.35;8.13;;;7.20;99.90;;;;;;5051282;28;20086;-67
2022/03/15 02:48:44;;;;;;;18.85;9.00;;;7.10;99.90;;;;;;5050290;28;20033;-67
2022/03/15 02:51:10;;;;;;;25.27;9.00;;;7.10;99.90;;;;;;5042225;28;20513;-67
2022/03/15 02:53:39;;;;;;;23.70;9.60;;;7.10;99.90;;;;;;5047849;28;20037;-67
2022/03/15 02:56:10;;;;;;;24.02;8.18;;;7.10;99.90;;;;;;5050399;28;20049;-67
2022/03/15 02:58:40;;;;;;;24.42;9.48;;;7.10;99.90;;;;;;5050753;28;20045;-67
2022/03/15 03:01:06;;;;;;;20.10;8.70;;;7.10;99.90;;;;;;5034572;28;20048;-66
2022/03/15 03:03:31;;;;;;;19.05;9.15;;;7.20;99.90;;;;;;5045834;28;20041;-67
2022/03/15 03:05:57;;;;;;;23.20;10.48;;;7.10;99.90;;;;;;5046802;28;20588;-67
2022/03/15 03:08:25;;;;;;;19.67;8.85;;;7.10;99.90;;;;;;5038944;28;20099;-67
2022/03/15 03:10:52;;;;;;;20.38;9.50;;;7.10;99.90;;;;;;5051719;28;20049;-67
2022/03/15 03:13:18;;;;;;;19.02;8.52;;;7.00;99.90;;;;;;5050389;28;20092;-67
2022/03/15 03:15:44;;;;;;;22.88;11.57;;;7.10;99.90;;;;;;5037305;28;20060;-67
2022/03/15 03:18:09;;;;;;;21.40;9.90;;;7.10;99.90;;;;;;5045373;28;20037;-67
2022/03/15 03:20:35;;;;;;;16.42;8.82;;;7.00;99.90;;;;;;5051287;28;20120;-67
2022/03/15 03:23:01;;;;;;;23.23;8.77;;;7.00;99.90;;;;;;5044457;28;20056;-67
2022/03/15 03:25:30;;;;;;;21.40;9.00;;;7.10;99.90;;;;;;5036779;28;20112;-67
2022/03/15 03:27:57;;;;;;;17.40;9.13;;;7.10;99.90;;;;;;5050670;28;20049;-67
2022/03/15 03:30:23;;;;;;;16.83;9.05;;;7.10;99.90;;;;;;5033438;28;20367;-67
2022/03/15 03:32:49;;;;;;;18.33;8.70;;;7.10;99.90;;;;;;5040174;28;20500;-67
2022/03/15 03:35:14;;;;;;;20.52;10.85;;;7.10;99.90;;;;;;5046206;28;20048;-67
2022/03/15 03:37:40;;;;;;;16.70;8.55;;;7.10;99.90;;;;;;5035545;28;20060;-67
2022/03/15 03:40:07;;;;;;;19.98;9.88;;;7.10;99.90;;;;;;5044325;28;20038;-67
2022/03/15 03:42:34;;;;;;;20.23;8.75;;;7.10;99.90;;;;;;5044585;28;20123;-67
2022/03/15 03:45:00;;;;;;;16.17;8.95;;;7.20;99.90;;;;;;5048310;28;20048;-67
2022/03/15 03:47:26;;;;;;;21.20;9.68;;;7.20;99.90;;;;;;5033417;28;20045;-67
2022/03/15 03:49:52;;;;;;;19.00;8.50;;;7.10;99.90;;;;;;5043955;28;20088;-67
2022/03/15 03:52:18;;;;;;;20.80;9.90;;;7.10;99.90;;;;;;5038161;28;20053;-66
2022/03/15 03:54:44;;;;;;;20.30;8.57;;;7.10;99.90;;;;;;5042862;28;20053;-67
2022/03/15 03:57:10;;;;;;;16.80;9.10;;;7.10;99.90;;;;;;5035028;28;20199;-67
2022/03/15 03:59:36;;;;;;;20.48;8.35;;;7.10;99.90;;;;;;5050177;28;20040;-67
2022/03/15 04:02:02;;;;;;;17.92;9.27;;;7.10;99.90;;;;;;5050173;28;20052;-67
2022/03/15 04:04:28;;;;;;;22.45;9.38;;;7.10;99.90;;;;;;5041567;28;20041;-67
2022/03/15 04:06:54;;;;;;;23.88;9.00;;;7.00;99.90;;;;;;5044234;28;20056;-67
2022/03/15 04:09:20;;;;;;;21.85;8.85;;;7.10;99.90;;;;;;5047567;28;20041;-67
2022/03/15 04:11:46;;;;;;;17.48;8.68;;;7.00;99.90;;;;;;5041642;28;20111;-67
2022/03/15 04:14:11;;;;;;;20.73;8.80;;;7.00;99.90;;;;;;5049225;28;20123;-67
2022/03/15 04:16:38;;;;;;;19.48;8.90;;;7.00;99.90;;;;;;5036766;28;20420;-67
2022/03/15 04:19:04;;;;;;;20.42;8.75;;;7.00;99.90;;;;;;5045445;28;20094;-67
2022/03/15 04:21:30;;;;;;;20.17;9.35;;;7.00;99.90;;;;;;5046001;28;20102;-66
2022/03/15 04:23:56;;;;;;;22.65;9.57;;;7.00;99.90;;;;;;5032659;28;20045;-67
2022/03/15 04:26:22;;;;;;;17.00;9.30;;;7.00;99.90;;;;;;5041734;28;20037;-67
2022/03/15 04:28:48;;;;;;;20.55;9.80;;;7.00;99.90;;;;;;5037922;28;20078;-66
2022/03/15 04:31:14;;;;;;;18.45;10.10;;;6.90;99.90;;;;;;5035379;28;20045;-67
2022/03/15 04:33:40;;;;;;;21.30;9.93;;;6.90;99.90;;;;;;5046846;28;20045;-67
2022/03/15 04:36:06;;;;;;;27.23;10.85;;;6.90;99.90;;;;;;5041863;28;20046;-67
2022/03/15 04:38:32;;;;;;;27.00;10.60;;;7.00;99.90;;;;;;5034314;28;20049;-67
2022/03/15 04:40:59;;;;;;;18.98;11.20;;;7.00;99.90;;;;;;5048205;28;20131;-67
2022/03/15 04:43:25;;;;;;;21.00;9.80;;;7.00;99.90;;;;;;5048401;28;20044;-67
2022/03/15 04:45:51;;;;;;;18.48;9.35;;;7.00;99.90;;;;;;5033166;28;20044;-67
2022/03/15 04:48:18;;;;;;;19.55;10.57;;;7.00;99.90;;;;;;5039275;28;20045;-67
2022/03/15 04:50:44;;;;;;;17.77;9.55;;;6.90;99.90;;;;;;5040367;28;20080;-67
2022/03/15 04:53:09;;;;;;;24.85;12.00;;;7.00;99.90;;;;;;5037657;28;20045;-67
2022/03/15 04:55:35;;;;;;;21.80;10.13;;;7.00;99.90;;;;;;5047653;28;20052;-66
2022/03/15 04:58:00;;;;;;;20.40;9.68;;;6.90;99.90;;;;;;5043181;28;20044;-66
2022/03/15 05:00:26;;;;;;;24.27;11.38;;;7.00;99.90;;;;;;5038677;28;20532;-66
2022/03/15 05:02:52;;;;;;;19.52;10.05;;;7.00;99.90;;;;;;5048033;28;20048;-66
2022/03/15 05:05:17;;;;;;;25.10;10.07;;;6.90;99.90;;;;;;5033581;28;20048;-66
2022/03/15 05:07:43;;;;;;;17.92;9.98;;;7.00;99.90;;;;;;5047849;28;20051;-66
2022/03/15 05:12:53;;;;;;;22.83;11.13;;;6.90;99.90;;;;;;5037530;28;20102;-66
2022/03/15 05:15:19;;;;;;;17.25;10.52;;;7.00;99.90;;;;;;5044171;28;20124;-66
2022/03/15 05:17:44;;;;;;;27.52;11.88;;;7.00;99.90;;;;;;5048623;28;20068;-66
2022/03/15 05:20:11;;;;;;;18.77;12.63;;;7.00;99.90;;;;;;5033487;28;20542;-66
2022/03/15 05:22:37;;;;;;;22.98;12.25;;;6.90;99.90;;;;;;5038719;28;20052;-66
2022/03/15 05:25:03;;;;;;;24.35;11.40;;;7.00;99.90;;;;;;5048933;28;20129;-66
2022/03/15 05:27:33;;;;;;;18.70;12.80;;;7.00;99.90;;;;;;5038549;28;20099;-66
2022/03/15 05:29:59;;;;;;;22.42;11.60;;;7.00;99.90;;;;;;5043559;28;20106;-66
2022/03/15 05:32:26;;;;;;;28.55;12.27;;;7.00;99.90;;;;;;5046840;28;20887;-67
2022/03/15 05:34:52;;;;;;;27.23;13.65;;;7.00;99.90;;;;;;5048377;28;20033;-67
2022/03/15 05:37:17;;;;;;;24.38;11.90;;;7.00;99.90;;;;;;5031624;28;20099;-67
2022/03/15 05:39:43;;;;;;;26.00;12.25;;;7.00;99.90;;;;;;5043477;28;20052;-67
2022/03/15 05:42:12;;;;;;;20.10;13.10;;;7.00;99.90;;;;;;5038489;28;20048;-67
2022/03/15 05:44:38;;;;;;;23.13;12.65;;;7.00;99.90;;;;;;5045754;28;20037;-67
2022/03/15 05:47:04;;;;;;;25.90;12.60;;;7.00;99.90;;;;;;5036860;28;20127;-66
2022/03/15 05:49:30;;;;;;;22.92;12.75;;;7.00;99.90;;;;;;5046532;28;20130;-66
2022/03/15 05:51:55;;;;;;;24.58;13.25;;;7.00;99.90;;;;;;5046977;28;20053;-66
2022/03/15 05:54:21;;;;;;;27.95;13.73;;;7.00;99.90;;;;;;5039500;28;20049;-66
2022/03/15 05:56:46;;;;;;;20.92;13.10;;;7.00;99.90;;;;;;5028923;28;20046;-66
2022/03/15 05:59:13;;;;;;;25.38;14.02;;;7.00;99.90;;;;;;5044752;28;20430;-67
2022/03/15 06:01:39;;;;;;;23.98;12.50;;;7.00;99.90;;;;;;5038824;28;20172;-66
2022/03/15 06:04:05;;;;;;;18.45;12.15;;;7.00;99.90;;;;;;5037055;28;20049;-66
2022/03/15 06:06:31;;;;;;;25.30;14.98;;;7.00;99.90;;;;;;5042973;28;20057;-67
2022/03/15 06:08:56;;;;;;;25.70;15.00;;;7.00;99.90;;;;;;5047818;28;20049;-67
2022/03/15 06:11:22;;;;;;;27.30;15.30;;;7.00;99.90;;;;;;5043239;28;20048;-66
2022/03/15 06:13:47;;;;;;;26.05;15.80;;;7.10;99.90;;;;;;5037594;28;20048;-66
2022/03/15 06:16:13;;;;;;;29.52;14.32;;;7.00;99.90;;;;;;5047649;28;20041;-66
2022/03/15 06:18:39;;;;;;;24.80;16.10;;;7.10;99.90;;;;;;5047008;28;20053;-66
2022/03/15 06:21:05;;;;;;;29.95;15.88;;;7.10;99.90;;;;;;5037996;28;20083;-67
2022/03/15 06:23:31;;;;;;;29.13;15.27;;;7.10;99.90;;;;;;5044991;28;20132;-66
2022/03/15 06:25:56;;;;;;;36.95;19.67;;;7.20;99.90;;;;;;5046961;28;20041;-67
2022/03/15 06:28:22;;;;;;;24.50;15.95;;;7.20;99.90;;;;;;5036587;28;20045;-67
2022/03/15 06:30:47;;;;;;;28.02;16.85;;;7.30;99.90;;;;;;5039974;28;20396;-67
2022/03/15 06:33:14;;;;;;;32.90;17.02;;;7.20;99.90;;;;;;5045421;28;20041;-66
2022/03/15 06:35:42;;;;;;;27.60;16.08;;;7.20;99.90;;;;;;5047648;28;20388;-66
2022/03/15 06:38:09;;;;;;;26.85;15.73;;;7.20;99.90;;;;;;5038495;28;20056;-66
2022/03/15 06:40:35;;;;;;;39.25;17.15;;;7.30;99.90;;;;;;5035585;28;20029;-66
2022/03/15 06:43:02;;;;;;;26.33;14.38;;;7.30;99.90;;;;;;5032447;28;20386;-66
2022/03/15 06:45:28;;;;;;;26.42;14.88;;;7.40;99.90;;;;;;5044864;28;20079;-66
2022/03/15 06:47:54;;;;;;;32.63;15.07;;;7.30;99.90;;;;;;5034799;28;20053;-66
2022/03/15 06:50:19;;;;;;;29.30;15.85;;;7.40;99.90;;;;;;5040760;28;20029;-66
2022/03/15 06:52:46;;;;;;;25.33;14.90;;;7.50;99.90;;;;;;5041521;28;20044;-66
2022/03/15 06:55:13;;;;;;;33.10;17.08;;;7.50;99.90;;;;;;5036380;28;20049;-66
2022/03/15 06:57:39;;;;;;;24.20;15.68;;;7.50;99.90;;;;;;5047933;28;20052;-66
2022/03/15 07:00:10;;;;;;;32.20;16.08;;;7.50;99.90;;;;;;5045053;28;20136;-66
2022/03/15 07:02:36;;;;;;;28.85;15.35;;;7.50;99.90;;;;;;5037476;28;20125;-66
2022/03/15 07:05:03;;;;;;;22.75;16.08;;;7.50;99.90;;;;;;5047335;28;20172;-66
2022/03/15 07:07:29;;;;;;;31.67;16.85;;;7.60;99.90;;;;;;5048620;28;20048;-66
2022/03/15 07:09:55;;;;;;;25.60;15.48;;;7.50;99.90;;;;;;5039671;28;20504;-66
2022/03/15 07:12:22;;;;;;;29.00;17.58;;;7.50;99.90;;;;;;5048024;28;20083;-66
2022/03/15 07:14:49;;;;;;;28.17;16.52;;;7.50;99.90;;;;;;5044876;28;20099;-67
2022/03/15 07:17:15;;;;;;;31.55;17.02;;;7.50;99.90;;;;;;5041415;28;20037;-67
2022/03/15 07:19:41;;;;;;;26.90;14.73;;;7.50;99.90;;;;;;5051145;28;20057;-67
2022/03/15 07:22:07;;;;;;;29.15;15.05;;;7.60;99.90;;;;;;5048716;28;20037;-67
2022/03/15 07:24:33;;;;;;;29.60;14.40;;;7.60;99.90;;;;;;5035984;28;20385;-67
2022/03/15 07:26:59;;;;;;;26.88;14.75;;;7.60;99.90;;;;;;5043651;28;20041;-67
2022/03/15 07:29:25;;;;;;;28.08;15.45;;;7.70;99.90;;;;;;5034928;28;20391;-67
2022/03/15 07:31:50;;;;;;;25.73;16.73;;;7.70;99.90;;;;;;5041367;28;20053;-66
2022/03/15 07:34:16;;;;;;;23.88;15.65;;;7.70;99.90;;;;;;5033257;28;20120;-66
2022/03/15 07:36:41;;;;;;;24.52;15.48;;;7.80;99.90;;;;;;5050094;28;20136;-67
2022/03/15 07:39:07;;;;;;;32.45;16.65;;;7.80;99.90;;;;;;5049570;28;20037;-66
2022/03/15 07:41:40;;;;;;;33.00;16.48;;;7.80;99.90;;;;;;5038665;28;20106;-66
2022/03/15 07:44:09;;;;;;;31.57;16.37;;;7.90;99.90;;;;;;5038570;28;20041;-66
2022/03/15 07:46:36;;;;;;;28.48;15.95;;;8.00;99.90;;;;;;5050097;28;20068;-66
2022/03/15 07:49:02;;;;;;;28.45;16.27;;;8.00;99.90;;;;;;5038670;28;20064;-66
2022/03/15 07:51:29;;;;;;;25.02;13.38;;;8.10;99.90;;;;;;5040079;28;20497;-66
2022/03/15 07:53:56;;;;;;;28.38;14.57;;;8.20;99.90;;;;;;5046498;28;20049;-66
2022/03/15 07:56:22;;;;;;;25.92;15.77;;;8.20;99.90;;;;;;5036565;28;20528;-66
2022/03/15 07:58:47;;;;;;;31.98;17.30;;;8.30;99.90;;;;;;5029221;28;20085;-67
2022/03/15 08:01:13;;;;;;;30.00;15.27;;;8.30;99.90;;;;;;5029272;28;20116;-66
2022/03/15 08:03:38;;;;;;;32.78;15.73;;;8.30;99.90;;;;;;5046870;28;20040;-66
2022/03/15 08:06:04;;;;;;;34.35;14.77;;;8.30;99.90;;;;;;5043881;28;20108;-66
2022/03/15 08:08:30;;;;;;;25.85;13.70;;;8.30;99.90;;;;;;5044718;28;20052;-66
2022/03/15 08:10:55;;;;;;;23.65;14.07;;;8.40;99.90;;;;;;5041987;28;20041;-66
2022/03/15 08:13:21;;;;;;;32.17;12.82;;;8.40;99.90;;;;;;5044792;28;20432;-66
2022/03/15 08:15:47;;;;;;;28.17;13.88;;;8.50;99.90;;;;;;5047119;28;20498;-66
2022/03/15 08:18:13;;;;;;;25.45;13.60;;;8.50;99.90;;;;;;5040970;28;20059;-66
2022/03/15 08:20:39;;;;;;;25.90;13.25;;;8.60;99.90;;;;;;5029945;28;20099;-66
2022/03/15 08:23:05;;;;;;;22.67;12.13;;;8.60;99.90;;;;;;5028954;28;20516;-66
2022/03/15 08:25:31;;;;;;;27.63;12.10;;;8.60;99.90;;;;;;5036912;28;20041;-66
2022/03/15 08:27:57;;;;;;;24.30;11.85;;;8.70;99.90;;;;;;5038166;28;20048;-66
2022/03/15 08:30:23;;;;;;;21.05;11.10;;;8.70;99.90;;;;;;5032750;28;20061;-66
2022/03/15 08:32:48;;;;;;;29.45;12.75;;;8.80;99.90;;;;;;5028056;28;20045;-66
2022/03/15 08:35:14;;;;;;;24.90;14.07;;;8.80;99.90;;;;;;5049056;28;20119;-66
2022/03/15 08:37:40;;;;;;;26.48;12.95;;;8.90;99.90;;;;;;5032468;28;20057;-66
2022/03/15 08:40:06;;;;;;;28.85;12.68;;;8.90;99.90;;;;;;5030050;28;20069;-66
2022/03/15 08:42:32;;;;;;;26.38;12.52;;;8.90;99.90;;;;;;5029318;28;20091;-66
2022/03/15 08:44:58;;;;;;;23.02;12.07;;;8.90;99.90;;;;;;5028235;28;20045;-66
2022/03/15 08:47:23;;;;;;;31.25;15.73;;;9.00;99.90;;;;;;5030014;28;20057;-66
2022/03/15 08:49:49;;;;;;;35.15;14.82;;;9.00;99.90;;;;;;5049569;28;20051;-66
2022/03/15 08:52:14;;;;;;;30.45;14.60;;;9.10;99.90;;;;;;5032170;28;20050;-66
2022/03/15 08:54:40;;;;;;;37.75;17.20;;;9.10;99.90;;;;;;5035467;28;20090;-66
2022/03/15 08:57:07;;;;;;;31.40;17.00;;;9.20;99.90;;;;;;5048714;28;20040;-66
2022/03/15 08:59:32;;;;;;;34.08;17.90;;;9.30;99.90;;;;;;5045776;28;20082;-66
2022/03/15 09:01:59;;;;;;;29.98;17.73;;;9.50;99.90;;;;;;5034498;28;20388;-66
2022/03/15 09:04:25;;;;;;;38.15;17.55;;;9.60;99.90;;;;;;5044340;28;20076;-66
2022/03/15 09:06:50;;;;;;;46.45;19.40;;;9.70;99.90;;;;;;5035450;28;20072;-66
2022/03/15 09:09:21;;;;;;;34.70;18.30;;;9.80;99.90;;;;;;5047799;28;20397;-66
2022/03/15 09:11:47;;;;;;;31.95;17.67;;;10.00;99.90;;;;;;5049605;28;20049;-66
2022/03/15 09:14:14;;;;;;;38.28;18.85;;;10.00;99.90;;;;;;5038061;28;20450;-66
2022/03/15 09:16:39;;;;;;;34.95;19.73;;;10.10;99.90;;;;;;5040031;28;20068;-66
2022/03/15 09:19:06;;;;;;;30.83;20.33;;;10.20;99.90;;;;;;5046800;28;20134;-66
2022/03/15 09:21:31;;;;;;;33.42;18.83;;;10.20;99.90;;;;;;5047880;28;20033;-67
2022/03/15 09:23:57;;;;;;;31.00;18.98;;;10.30;99.90;;;;;;5044100;28;20070;-66
2022/03/15 09:26:24;;;;;;;41.75;23.38;;;10.30;99.90;;;;;;5038669;28;20845;-66
2022/03/15 09:28:51;;;;;;;33.20;21.95;;;10.40;99.90;;;;;;5047584;28;20049;-66
2022/03/15 09:31:17;;;;;;;40.50;24.83;;;10.40;99.90;;;;;;5037129;28;20037;-66
2022/03/15 09:33:43;;;;;;;35.85;22.55;;;10.50;99.90;;;;;;5041283;28;20071;-65
2022/03/15 09:36:09;;;;;;;52.38;24.42;;;10.60;99.90;;;;;;5047795;28;20068;-66
2022/03/15 09:38:35;;;;;;;40.80;23.55;;;10.60;99.90;;;;;;5040266;28;20041;-66
2022/03/15 09:41:05;;;;;;;37.47;23.52;;;10.60;99.90;;;;;;5035172;28;20079;-66
2022/03/15 09:43:36;;;;;;;32.25;21.65;;;10.70;99.90;;;;;;5047858;28;20052;-66
2022/03/15 09:46:05;;;;;;;39.55;22.65;;;10.70;99.90;;;;;;5048183;28;20498;-66
2022/03/15 09:48:31;;;;;;;34.83;20.95;;;10.90;99.90;;;;;;5034745;28;20148;-66
2022/03/15 09:50:57;;;;;;;35.78;21.88;;;11.00;99.90;;;;;;5036920;28;20048;-66
2022/03/15 09:53:23;;;;;;;36.17;22.88;;;11.00;99.90;;;;;;5047807;28;20458;-66
2022/03/15 09:55:49;;;;;;;37.22;21.70;;;11.10;99.90;;;;;;5040016;28;20079;-66
2022/03/15 09:58:19;;;;;;;37.65;22.67;;;11.20;99.90;;;;;;5028511;28;20042;-66
2022/03/15 10:00:52;;;;;;;37.92;22.38;;;11.30;99.90;;;;;;5042546;28;20120;-66
2022/03/15 10:03:18;;;;;;;;;;;11.20;99.90;;;;;;5042916;28;20403;-66
2022/03/15 10:05:45;;;;;;;31.30;20.73;;;11.20;99.90;;;;;;5036038;28;20012;-66
2022/03/15 10:08:11;;;;;;;38.00;22.50;;;11.30;99.90;;;;;;5027426;28;20095;-67
2022/03/15 10:10:37;;;;;;;40.08;25.55;;;11.30;99.90;;;;;;5033396;28;20050;-66
2022/03/15 10:13:03;;;;;;;38.63;22.08;;;11.40;99.90;;;;;;5042764;28;20051;-66
2022/03/15 10:15:28;;;;;;;35.65;22.60;;;11.50;99.90;;;;;;5029299;28;20081;-66
2022/03/15 10:17:56;;;;;;;33.92;22.02;;;11.60;99.90;;;;;;5028277;28;20045;-66
2022/03/15 10:20:31;;;;;;;36.08;25.17;;;11.60;99.90;;;;;;5040587;28;20033;-65
2022/03/15 10:22:59;;;;;;;37.85;23.15;;;11.50;99.90;;;;;;5028509;28;20041;-65
2022/03/15 10:25:27;;;;;;;45.45;24.40;;;11.50;99.90;;;;;;5027188;28;20584;-65
2022/03/15 10:27:58;;;;;;;30.77;22.25;;;11.40;99.90;;;;;;5040725;28;20400;-66
2022/03/15 10:30:25;;;;;;;34.20;22.88;;;11.40;99.90;;;;;;5030820;28;20511;-65
2022/03/15 10:32:52;;;;;;;28.25;20.85;;;11.40;99.90;;;;;;5027651;28;20050;-65
2022/03/15 10:35:22;;;;;;;40.20;21.48;;;11.50;99.90;;;;;;5027947;28;20067;-65
2022/03/15 10:37:50;;;;;;;35.65;21.55;;;11.40;99.90;;;;;;5032092;28;20131;-65
2022/03/15 10:40:16;;;;;;;35.38;20.77;;;11.30;99.90;;;;;;5040164;28;20044;-65
2022/03/15 10:42:43;;;;;;;42.80;24.45;;;11.30;99.90;;;;;;5035229;28;20045;-65
2022/03/15 10:45:22;;;;;;;37.78;23.55;;;11.30;99.90;;;;;;5033145;28;20037;-65
2022/03/15 10:47:50;;;;;;;35.83;20.88;;;11.40;99.90;;;;;;5050597;28;20645;-66
2022/03/15 10:50:16;;;;;;;32.08;20.42;;;11.30;99.90;;;;;;5048543;28;20215;-66
2022/03/15 10:52:44;;;;;;;29.10;20.38;;;11.20;99.90;;;;;;5048547;28;20136;-66
2022/03/15 10:55:19;;;;;;;38.72;22.73;;;11.30;99.90;;;;;;5031227;28;20117;-66
2022/03/15 10:58:05;;;;;;;31.98;20.85;;;11.20;99.90;;;;;;5034760;28;20076;-66
2022/03/15 11:00:37;;;;;;;32.35;21.95;;;11.20;99.90;;;;;;5042354;28;20044;-66
2022/03/15 11:03:13;;;;;;;36.17;23.80;;;11.20;99.90;;;;;;5031865;28;20079;-66
2022/03/15 11:05:40;;;;;;;35.47;22.63;;;11.20;99.90;;;;;;5031585;28;20072;-64
2022/03/15 11:08:07;;;;;;;36.63;24.33;;;11.20;99.90;;;;;;5050016;28;20041;-64
2022/03/15 11:10:35;;;;;;;34.92;24.38;;;11.10;99.90;;;;;;5051296;28;20041;-65
2022/03/15 11:13:06;;;;;;;40.35;23.75;;;11.10;99.90;;;;;;5045297;28;20054;-64
2022/03/15 11:15:39;;;;;;;36.22;24.48;;;11.10;99.90;;;;;;5031144;28;20485;-65
2022/03/15 11:18:06;;;;;;;38.15;23.50;;;11.00;99.90;;;;;;5031414;28;20038;-65
2022/03/15 11:20:35;;;;;;;34.70;21.83;;;11.00;99.90;;;;;;5034990;28;20405;-65
2022/03/15 11:23:04;;;;;;;38.85;21.85;;;11.00;99.90;;;;;;5031513;28;20056;-66
2022/03/15 11:25:35;;;;;;;36.45;23.17;;;10.90;99.90;;;;;;5040969;28;20137;-67
2022/03/15 11:28:03;;;;;;;37.80;25.27;;;10.90;99.90;;;;;;5041610;28;20060;-67
2022/03/15 11:30:29;;;;;;;50.00;26.13;;;10.90;99.90;;;;;;5047742;28;20041;-67
2022/03/15 11:32:56;;;;;;;37.17;25.45;;;10.90;99.90;;;;;;5031131;28;20056;-67
2022/03/15 11:35:23;;;;;;;31.77;21.90;;;10.90;99.90;;;;;;5035190;28;20045;-67
2022/03/15 11:37:49;;;;;;;36.30;23.10;;;10.90;99.90;;;;;;5031195;28;20204;-67
2022/03/15 11:40:18;;;;;;;39.92;21.98;;;10.90;99.90;;;;;;5036336;28;20060;-67
2022/03/15 11:42:47;;;;;;;40.90;24.85;;;10.90;99.90;;;;;;5033882;28;20079;-67
2022/03/15 11:45:31;;;;;;;43.10;22.35;;;10.90;99.90;;;;;;5036458;28;20080;-67
2022/03/15 11:48:17;;;;;;;43.67;22.27;;;10.90;99.90;;;;;;5037407;28;20037;-67
2022/03/15 11:51:19;;;;;;;34.65;21.63;;;10.90;99.90;;;;;;5041347;28;20099;-67
2022/03/15 11:53:45;;;;;;;35.42;22.35;;;10.90;99.90;;;;;;5029611;28;20411;-67
2022/03/15 11:56:44;;;;;;;26.65;18.38;;;11.00;99.90;;;;;;5029522;28;20045;-67
2022/03/15 11:59:10;;;;;;;32.33;20.80;;;11.00;99.90;;;;;;5042460;28;20053;-67
2022/03/15 12:01:54;;;;;;;28.55;20.23;;;11.00;99.90;;;;;;5038495;28;20046;-67
2022/03/15 12:04:24;;;;;;;27.63;16.75;;;11.10;99.90;;;;;;5040238;28;20052;-67
2022/03/15 12:06:56;;;;;;;31.60;18.75;;;11.20;99.90;;;;;;5041894;28;20432;-67
2022/03/15 12:09:30;;;;;;;27.00;16.73;;;11.20;99.90;;;;;;5029444;28;20053;-67
2022/03/15 12:12:07;;;;;;;26.02;18.23;;;11.20;99.90;;;;;;5029973;28;20120;-67
2022/03/15 12:14:43;;;;;;;29.85;17.10;;;11.40;99.90;;;;;;5046413;28;20132;-67
2022/03/15 12:17:12;;;;;;;26.58;17.52;;;11.50;99.90;;;;;;5038686;28;20052;-68
2022/03/15 12:19:44;;;;;;;26.15;16.55;;;11.60;99.90;;;;;;5030434;28;20229;-68
2022/03/15 12:22:24;;;;;;;26.08;15.45;;;11.60;99.90;;;;;;5029841;28;20424;-67
2022/03/15 12:25:02;;;;;;;20.48;13.40;;;11.70;99.90;;;;;;5030095;28;20468;-67
2022/03/15 12:27:28;;;;;;;20.95;14.18;;;11.80;99.90;;;;;;5029367;28;20038;-67
2022/03/15 12:29:58;;;;;;;26.58;13.20;;;11.80;99.90;;;;;;5036780;28;20090;-68
2022/03/15 12:32:25;;;;;;;21.88;13.45;;;11.90;99.90;;;;;;5033761;28;20497;-68
2022/03/15 12:34:56;;;;;;;17.73;11.63;;;12.00;99.90;;;;;;5032960;28;20037;-68
2022/03/15 12:37:37;;;;;;;27.13;14.68;;;12.00;99.90;;;;;;5033751;28;20120;-68
2022/03/15 12:40:13;;;;;;;19.85;11.50;;;12.10;99.90;;;;;;5048389;28;20033;-68